Time;durP1;ratioP1;P1;durP2;ratioP2;P2;SDS_P1;SDS_P2;PMS_P1;PMS_P2;Temp;Humidity;BMP_temperature;BMP_pressure;BME280_temperature;BME280_humidity;BME280_pressure;Samples;Min_cycle;Max_cycle;Signal;HPM_P1;HPM_P2
2021/09/16 00:00:33;;;;;;;;;;;;;;;19.44;75.11;97872.66;1648888;87;24764;-85
2021/09/16 00:03:01;;;;;;;;;;;;;;;19.44;75.08;97871.83;1647265;85;20243;-85
2021/09/16 00:05:33;;;;;;;;;;;;;;;19.46;75.04;97872.52;1648807;85;25939;-85
2021/09/16 00:07:59;;;;;;;;;;;;;;;19.47;75.02;97868.38;1645836;87;24590;-85
2021/09/16 00:10:25;;;;;;;;;;;;;;;19.46;75.01;97876.00;1648367;87;20868;-84
2021/09/16 00:12:51;;;;;;;;;;;;;;;19.46;74.97;97864.56;1647535;87;20793;-85
2021/09/16 00:15:17;;;;;;;;;;;;;;;19.42;74.96;97873.32;1648605;87;20255;-85
2021/09/16 00:17:43;;;;;;;;;;;;;;;19.40;74.94;97879.83;1654931;85;25986;-85
2021/09/16 00:20:09;;;;;;;;;;;;;;;19.37;74.93;97868.22;1659817;85;20352;-85
2021/09/16 00:22:35;;;;;;;;;;;;;;;19.39;74.94;97877.67;1660890;85;20250;-85
2021/09/16 00:25:01;;;;;;;;;;;;;;;19.42;74.90;97876.50;1659644;85;20262;-85
2021/09/16 00:27:27;;;;;;;;;;;;;;;19.42;74.90;97874.65;1658550;85;22025;-85
2021/09/16 00:29:53;;;;;;;;;;;;;;;19.39;74.83;97879.49;1659445;85;26029;-85
2021/09/16 00:32:19;;;;;;;;;;;;;;;19.40;74.80;97879.83;1658541;86;20918;-85
2021/09/16 00:34:45;;;;;;;;;;;;;;;19.39;74.75;97875.02;1658818;86;20341;-86
2021/09/16 00:37:11;;;;;;;;;;;;;;;19.39;74.70;97875.52;1659080;85;24808;-86
2021/09/16 00:39:37;;;;;;;;;;;;;;;19.39;74.66;97874.19;1658990;86;20308;-86
2021/09/16 00:42:03;;;;;;;;;;;;;;;19.32;74.64;97862.61;1657989;85;26175;-85
2021/09/16 00:44:29;;;;;;;;;;;;;;;19.41;74.64;97871.70;1658116;86;24444;-85
2021/09/16 00:46:55;;;;;;;;;;;;;;;19.44;74.64;97873.98;1659841;84;20320;-85
2021/09/16 00:49:27;;;;;;;;;;;;;;;19.45;74.61;97874.84;1658584;85;20540;-85
2021/09/16 00:51:53;;;;;;;;;;;;;;;19.45;74.61;97874.34;1660196;85;21985;-85
2021/09/16 00:54:20;;;;;;;;;;;;;;;19.47;74.60;97872.35;1658371;85;26005;-85
2021/09/16 00:56:50;;;;;;;;;;;;;;;19.47;74.61;97876.83;1659664;85;24531;-85
2021/09/16 00:59:18;;;;;;;;;;;;;;;19.48;74.57;97877.96;1660608;85;20909;-85
2021/09/16 01:01:44;;;;;;;;;;;;;;;19.48;74.58;97884.59;1659816;86;24787;-85
2021/09/16 01:04:16;;;;;;;;;;;;;;;19.43;74.58;97881.61;1658338;85;20248;-85
2021/09/16 01:06:42;;;;;;;;;;;;;;;19.40;74.60;97884.63;1659017;85;26073;-85
2021/09/16 01:09:09;;;;;;;;;;;;;;;19.34;74.59;97883.18;1660659;85;24487;-85
2021/09/16 01:11:39;;;;;;;;;;;;;;;19.33;74.55;97875.72;1656304;86;20232;-85
2021/09/16 01:14:10;;;;;;;;;;;;;;;19.34;74.56;97869.91;1658884;85;24788;-85
2021/09/16 01:16:42;;;;;;;;;;;;;;;19.35;74.60;97872.40;1657895;84;22039;-85
2021/09/16 01:19:14;;;;;;;;;;;;;;;19.37;74.66;97870.88;1657942;85;26096;-85
2021/09/16 01:21:43;;;;;;;;;;;;;;;19.35;74.69;97868.41;1658889;85;24585;-86
2021/09/16 01:24:15;;;;;;;;;;;;;;;19.37;74.74;97864.23;1659401;85;20485;-85
2021/09/16 01:26:42;;;;;;;;;;;;;;;19.36;74.73;97863.94;1661011;86;24854;-85
2021/09/16 01:29:09;;;;;;;;;;;;;;;19.35;74.73;97869.74;1658767;86;22129;-85
2021/09/16 01:31:38;;;;;;;;;;;;;;;19.35;74.77;97869.74;1658914;85;21107;-85
2021/09/16 01:34:08;;;;;;;;;;;;;;;19.34;74.73;97868.58;1660213;85;24509;-85
2021/09/16 01:36:35;;;;;;;;;;;;;;;19.31;74.73;97867.09;1661528;86;20239;-85
2021/09/16 01:39:05;;;;;;;;;;;;;;;19.31;74.73;97858.34;1657406;85;24882;-85
2021/09/16 01:41:34;;;;;;;;;;;;;;;19.29;74.72;97857.17;1659856;85;22578;-86
2021/09/16 01:44:00;;;;;;;;;;;;;;;19.29;74.72;97856.34;1658474;86;26049;-85
2021/09/16 01:46:26;;;;;;;;;;;;;;;19.29;74.72;97853.20;1661879;85;24484;-85
2021/09/16 01:48:56;;;;;;;;;;;;;;;19.27;74.68;97849.88;1639812;86;20621;-86
2021/09/16 01:51:22;;;;;;;;;;;;;;;19.29;74.72;97845.73;1661742;85;24795;-85
2021/09/16 01:53:50;;;;;;;;;;;;;;;19.29;74.72;97847.06;1659232;86;20947;-86
2021/09/16 01:56:16;;;;;;;;;;;;;;;19.29;74.75;97845.73;1660709;85;26153;-86
2021/09/16 01:58:43;;;;;;;;;;;;;;;19.27;74.74;97847.72;1658214;85;24778;-85
2021/09/16 02:01:09;;;;;;;;;;;;;;;19.25;74.74;97844.44;1660602;85;20333;-86
2021/09/16 02:03:35;;;;;;;;;;;;;;;19.24;74.75;97839.63;1657444;85;24742;-86
2021/09/16 02:06:01;;;;;;;;;;;;;;;19.26;74.75;97841.59;1659451;85;22064;-85
2021/09/16 02:08:27;;;;;;;;;;;;;;;19.29;74.77;97837.77;1658750;85;25959;-85
2021/09/16 02:10:53;;;;;;;;;;;;;;;19.31;74.79;97841.09;1659918;85;20313;-85
2021/09/16 02:13:20;;;;;;;;;;;;;;;19.32;74.78;97838.23;1660047;85;20300;-85
2021/09/16 02:15:45;;;;;;;;;;;;;;;19.32;74.78;97847.52;1659327;85;24727;-84
2021/09/16 02:18:16;;;;;;;;;;;;;;;19.32;74.80;97844.87;1646880;85;20237;-85
2021/09/16 02:20:40;;;;;;;;;;;;;;;19.31;74.78;97844.54;1614922;87;26801;-85
2021/09/16 02:23:07;;;;;;;;;;;;;;;19.30;74.77;97838.94;1639090;87;25123;-85
2021/09/16 02:25:33;;;;;;;;;;;;;;;19.32;74.75;97840.89;1638019;87;20360;-85
2021/09/16 02:27:59;;;;;;;;;;;;;;;19.31;74.76;97832.59;1640804;87;20333;-85
2021/09/16 02:30:25;;;;;;;;;;;;;;;19.31;74.74;97837.11;1641169;87;22094;-85
2021/09/16 02:32:51;;;;;;;;;;;;;;;19.32;74.72;97832.93;1639633;87;21027;-85
2021/09/16 02:35:17;;;;;;;;;;;;;;;19.33;74.72;97831.11;1637832;87;20864;-85
2021/09/16 02:37:43;;;;;;;;;;;;;;;19.34;74.72;97834.09;1637378;87;20869;-85
2021/09/16 02:40:10;;;;;;;;;;;;;;;19.34;74.71;97841.55;1638384;87;24827;-85
2021/09/16 02:42:36;;;;;;;;;;;;;;;19.32;74.66;97838.73;1630787;86;22757;-85
2021/09/16 02:45:03;;;;;;;;;;;;;;;19.32;74.67;97842.22;1643720;86;21047;-85
2021/09/16 02:47:29;;;;;;;;;;;;;;;19.34;74.68;97838.07;1615807;86;24436;-85
2021/09/16 02:49:56;;;;;;;;;;;;;;;19.34;74.69;97834.09;1637091;86;20309;-85
2021/09/16 02:52:23;;;;;;;;;;;;;;;19.34;74.70;97834.91;1639979;86;24840;-85
2021/09/16 02:54:48;;;;;;;;;;;;;;;19.36;74.69;97833.42;1642920;86;22132;-86
2021/09/16 02:57:14;;;;;;;;;;;;;;;19.37;74.69;97835.87;1642507;86;21171;-86
2021/09/16 02:59:40;;;;;;;;;;;;;;;19.37;74.67;97827.91;1612381;87;24552;-86
2021/09/16 03:02:10;;;;;;;;;;;;;;;19.37;74.68;97825.27;1638521;86;20283;-86
2021/09/16 03:04:36;;;;;;;;;;;;;;;19.42;74.68;97827.41;1640086;87;24851;-86
2021/09/16 03:07:02;;;;;;;;;;;;;;;19.43;74.70;97829.03;1641077;87;20301;-86
2021/09/16 03:09:29;;;;;;;;;;;;;;;19.42;74.73;97831.39;1644562;85;26026;-86
2021/09/16 03:11:55;;;;;;;;;;;;;;;19.39;74.74;97840.52;1639597;85;24681;-86
2021/09/16 03:14:21;;;;;;;;;;;;;;;19.34;74.67;97838.89;1642449;87;20389;-86
2021/09/16 03:16:48;;;;;;;;;;;;;;;19.32;74.65;97840.06;1636293;85;20267;-86
2021/09/16 03:19:14;;;;;;;;;;;;;;;19.30;74.66;97835.45;1642383;84;22201;-86
2021/09/16 03:21:40;;;;;;;;;;;;;;;19.25;74.62;97832.00;1642013;87;25993;-86
2021/09/16 03:24:06;;;;;;;;;;;;;;;19.28;74.62;97836.12;1643917;87;20249;-86
2021/09/16 03:26:33;;;;;;;;;;;;;;;19.26;74.62;97838.94;1639195;85;20477;-85
2021/09/16 03:29:01;;;;;;;;;;;;;;;19.27;74.61;97843.75;1641767;87;37780;-85
2021/09/16 03:31:27;;;;;;;;;;;;;;;19.28;74.61;97846.23;1644295;87;22103;-85
2021/09/16 03:33:52;;;;;;;;;;;;;;;19.28;74.61;97844.91;1640933;87;21144;-85
2021/09/16 03:36:18;;;;;;;;;;;;;;;19.27;74.57;97837.11;1616075;87;24362;-85
2021/09/16 03:38:45;;;;;;;;;;;;;;;19.30;74.56;97840.76;1644420;87;20808;-85
2021/09/16 03:41:10;;;;;;;;;;;;;;;19.31;74.57;97839.23;1643711;85;24735;-85
2021/09/16 03:43:36;;;;;;;;;;;;;;;19.29;74.58;97841.26;1637380;87;20284;-86
2021/09/16 03:46:02;;;;;;;;;;;;;;;19.28;74.62;97843.58;1640582;87;20980;-86
2021/09/16 03:48:28;;;;;;;;;;;;;;;19.31;74.68;97838.44;1617091;87;20976;-85
2021/09/16 03:50:54;;;;;;;;;;;;;;;19.29;74.72;97842.58;1637035;87;20531;-85
2021/09/16 03:53:22;;;;;;;;;;;;;;;19.30;74.77;97844.73;1641664;87;20532;-84
2021/09/16 03:55:48;;;;;;;;;;;;;;;19.30;74.80;97848.72;1641417;87;22073;-85
2021/09/16 03:58:14;;;;;;;;;;;;;;;19.31;74.86;97838.44;1642904;87;21122;-85
2021/09/16 04:00:40;;;;;;;;;;;;;;;19.28;74.91;97843.58;1639348;87;21901;-85
2021/09/16 04:03:10;;;;;;;;;;;;;;;19.28;74.97;97841.42;1635947;87;20257;-84
2021/09/16 04:05:37;;;;;;;;;;;;;;;19.29;75.03;97838.60;1635413;87;25035;-85
2021/09/16 04:08:04;;;;;;;;;;;;;;;19.29;75.08;97837.27;1642533;85;21988;-85
2021/09/16 04:10:30;;;;;;;;;;;;;;;19.28;75.12;97840.09;1637326;87;26118;-85
2021/09/16 04:12:56;;;;;;;;;;;;;;;19.25;75.15;97837.31;1642864;87;20306;-85
2021/09/16 04:15:22;;;;;;;;;;;;;;;19.25;75.17;97841.79;1638488;87;20333;-85
2021/09/16 04:17:48;;;;;;;;;;;;;;;19.19;75.21;97840.16;1640607;86;24801;-85
2021/09/16 04:20:14;;;;;;;;;;;;;;;19.17;75.23;97842.66;1659247;85;20338;-85
2021/09/16 04:22:40;;;;;;;;;;;;;;;19.17;75.27;97843.98;1657425;86;26036;-85
2021/09/16 04:25:06;;;;;;;;;;;;;;;19.15;75.30;97841.50;1658926;84;20983;-85
2021/09/16 04:27:32;;;;;;;;;;;;;;;19.13;75.33;97839.54;1659854;85;20266;-85
2021/09/16 04:29:58;;;;;;;;;;;;;;;19.13;75.35;97844.02;1659960;85;24777;-85
2021/09/16 04:32:24;;;;;;;;;;;;;;;19.13;75.38;97842.69;1659382;85;20253;-85
2021/09/16 04:34:50;;;;;;;;;;;;;;;19.11;75.42;97838.05;1659553;85;21147;-85
2021/09/16 04:37:17;;;;;;;;;;;;;;;19.10;75.47;97839.88;1661098;85;24520;-85
2021/09/16 04:39:44;;;;;;;;;;;;;;;19.08;75.50;97831.28;1658105;85;20623;-85
2021/09/16 04:42:10;;;;;;;;;;;;;;;19.07;75.53;97837.58;1659259;85;24742;-85
2021/09/16 04:44:36;;;;;;;;;;;;;;;19.09;75.56;97841.39;1657554;85;20288;-85
2021/09/16 04:47:02;;;;;;;;;;;;;;;19.09;75.57;97838.22;1659191;85;25517;-85
2021/09/16 04:49:28;;;;;;;;;;;;;;;19.12;75.56;97841.03;1658559;85;24796;-85
2021/09/16 04:51:55;;;;;;;;;;;;;;;19.16;75.56;97840.50;1660530;85;20270;-85
2021/09/16 04:54:24;;;;;;;;;;;;;;;19.21;75.59;97841.30;1659708;85;25427;-85
2021/09/16 04:56:51;;;;;;;;;;;;;;;19.23;75.61;97844.11;1672265;83;21846;-85
2021/09/16 04:59:18;;;;;;;;;;;;;;;19.24;75.62;97842.28;1658200;85;26705;-85
2021/09/16 05:01:46;;;;;;;;;;;;;;;19.29;75.63;97849.22;1658887;85;24443;-85
2021/09/16 05:04:12;;;;;;;;;;;;;;;19.29;75.67;97844.41;1658592;85;20203;-85
2021/09/16 05:06:38;;;;;;;;;;;;;;;19.33;75.71;97843.05;1659940;85;24762;-85
2021/09/16 05:09:06;;;;;;;;;;;;;;;19.35;75.72;97851.67;1658101;85;22624;-85
2021/09/16 05:11:39;;;;;;;;;;;;;;;19.35;75.71;97853.82;1661714;86;26234;-85
2021/09/16 05:14:08;;;;;;;;;;;;;;;19.34;75.69;97858.80;1659445;86;24587;-85
2021/09/16 05:16:34;;;;;;;;;;;;;;;19.36;75.71;97858.63;1660890;85;20271;-85
2021/09/16 05:19:01;;;;;;;;;;;;;;;19.39;75.70;97860.92;1650577;85;24865;-85
2021/09/16 05:21:27;;;;;;;;;;;;;;;19.43;75.72;97860.38;1635061;86;22038;-85
2021/09/16 05:23:53;;;;;;;;;;;;;;;19.47;75.74;97863.56;1640254;86;26087;-85
2021/09/16 05:26:19;;;;;;;;;;;;;;;19.52;75.74;97861.20;1638744;86;20865;-85
2021/09/16 05:28:45;;;;;;;;;;;;;;;19.57;75.82;97861.49;1641919;86;20220;-85
2021/09/16 05:31:11;;;;;;;;;;;;;;;19.62;75.83;97859.13;1664753;85;25110;-85
2021/09/16 05:33:37;;;;;;;;;;;;;;;19.68;75.84;97859.75;1642573;86;20893;-85
2021/09/16 05:36:04;;;;;;;;;;;;;;;19.70;75.82;97863.53;1641924;86;26053;-85
2021/09/16 05:38:30;;;;;;;;;;;;;;;19.73;75.80;97861.36;1641503;86;24694;-85
2021/09/16 05:40:58;;;;;;;;;;;;;;;19.78;75.80;97863.48;1637646;86;20249;-85
2021/09/16 05:43:24;;;;;;;;;;;;;;;19.82;75.83;97856.80;1641732;86;24815;-85
2021/09/16 05:45:50;;;;;;;;;;;;;;;19.87;75.86;97863.22;1641932;86;21937;-85
2021/09/16 05:48:16;;;;;;;;;;;;;;;19.89;75.86;97865.70;1616312;87;26050;-85
2021/09/16 05:50:42;;;;;;;;;;;;;;;19.90;75.86;97863.38;1641177;86;24402;-85
2021/09/16 05:53:09;;;;;;;;;;;;;;;19.91;75.86;97869.02;1641872;86;20826;-85
2021/09/16 05:55:39;;;;;;;;;;;;;;;19.87;75.85;97863.22;1640732;87;25041;-85
2021/09/16 05:58:03;;;;;;;;;;;;;;;19.85;75.78;97866.58;1641222;86;22071;-85
2021/09/16 06:00:35;;;;;;;;;;;;;;;19.83;75.75;97870.41;1612181;88;26902;-85
2021/09/16 06:03:01;;;;;;;;;;;;;;;19.80;75.75;97866.79;1621431;87;24475;-85
2021/09/16 06:05:27;;;;;;;;;;;;;;;19.81;75.73;97870.57;1626062;87;20845;-85
2021/09/16 06:07:53;;;;;;;;;;;;;;;19.82;75.73;97865.59;1619140;87;24830;-85
2021/09/16 06:10:19;;;;;;;;;;;;;;;19.84;75.75;97860.11;1614010;87;20261;-85
2021/09/16 06:12:45;;;;;;;;;;;;;;;19.85;75.74;97865.75;1624175;87;20902;-85
2021/09/16 06:15:11;;;;;;;;;;;;;;;19.91;75.80;97865.03;1610180;88;24489;-86
2021/09/16 06:17:37;;;;;;;;;;;;;;;19.97;75.84;97862.96;1641796;86;20216;-86
2021/09/16 06:20:07;;;;;;;;;;;;;;;20.03;75.86;97866.23;1641676;84;24797;-86
2021/09/16 06:22:34;;;;;;;;;;;;;;;20.09;75.88;97870.00;1646782;86;22249;-86
2021/09/16 06:25:00;;;;;;;;;;;;;;;20.16;75.92;97874.92;1646467;85;26019;-86
2021/09/16 06:27:26;;;;;;;;;;;;;;;20.19;75.95;97874.04;1640229;86;24545;-86
2021/09/16 06:29:52;;;;;;;;;;;;;;;20.24;75.91;97879.63;1647077;86;20263;-86
2021/09/16 06:32:18;;;;;;;;;;;;;;;20.29;75.94;97874.59;1667265;85;24808;-86
2021/09/16 06:34:44;;;;;;;;;;;;;;;20.37;75.98;97881.70;1675376;84;21915;-86
2021/09/16 06:37:11;;;;;;;;;;;;;;;20.44;76.00;97882.63;1676033;85;26040;-86
2021/09/16 06:39:37;;;;;;;;;;;;;;;20.48;76.03;97883.91;1647472;85;24527;-86
2021/09/16 06:42:03;;;;;;;;;;;;;;;20.54;76.04;97883.69;1633331;86;20327;-86
2021/09/16 06:44:31;;;;;;;;;;;;;;;20.59;76.07;97886.12;1662966;84;24823;-86
2021/09/16 06:46:57;;;;;;;;;;;;;;;20.64;76.07;97890.88;1665361;86;21956;-86
2021/09/16 06:49:23;;;;;;;;;;;;;;;20.65;76.05;97895.19;1670828;85;25948;-86
2021/09/16 06:51:49;;;;;;;;;;;;;;;20.65;76.01;97897.35;1667012;84;24518;-86
2021/09/16 06:54:15;;;;;;;;;;;;;;;20.67;76.01;97898.00;1667717;85;20839;-86
2021/09/16 06:56:41;;;;;;;;;;;;;;;20.72;76.03;97898.78;1667875;84;24995;-86
2021/09/16 06:59:07;;;;;;;;;;;;;;;20.78;76.01;97907.35;1669752;84;21894;-86
2021/09/16 07:01:36;;;;;;;;;;;;;;;20.81;76.03;97909.62;1669162;84;21207;-86
2021/09/16 07:04:02;;;;;;;;;;;;;;;20.83;75.98;97908.45;1668925;85;24525;-86
2021/09/16 07:06:28;;;;;;;;;;;;;;;20.88;75.97;97908.72;1667475;86;20258;-86
2021/09/16 07:08:56;;;;;;;;;;;;;;;20.94;75.96;97912.98;1668196;84;24763;-86
2021/09/16 07:11:22;;;;;;;;;;;;;;;21.01;75.97;97914.70;1669159;85;22223;-86
2021/09/16 07:13:48;;;;;;;;;;;;;;;21.11;76.01;97918.42;1670228;84;21127;-86
2021/09/16 07:16:17;;;;;;;;;;;;;;;21.16;76.03;97914.73;1667960;85;25133;-86
2021/09/16 07:18:44;;;;;;;;;;;;;;;21.24;76.06;97913.27;1669890;84;20511;-86
2021/09/16 07:21:10;;;;;;;;;;;;;;;21.33;76.05;97912.67;1660276;86;24954;-86
2021/09/16 07:23:36;;;;;;;;;;;;;;;21.43;76.04;97914.52;1657613;86;21981;-86
2021/09/16 07:26:02;;;;;;;;;;;;;;;21.48;76.05;97918.27;1659954;85;25990;-86
2021/09/16 07:28:28;;;;;;;;;;;;;;;21.54;75.99;97916.19;1660064;85;20328;-86
2021/09/16 07:30:54;;;;;;;;;;;;;;;21.61;75.89;97917.56;1660668;85;20358;-86
2021/09/16 07:33:20;;;;;;;;;;;;;;;21.64;75.85;97921.20;1658607;86;24803;-86
2021/09/16 07:35:46;;;;;;;;;;;;;;;21.72;75.79;97919.73;1658286;85;22578;-86
2021/09/16 07:38:15;;;;;;;;;;;;;;;21.76;75.73;97921.02;1659789;85;26100;-86
2021/09/16 07:40:41;;;;;;;;;;;;;;;21.80;75.66;97921.45;1659744;85;20321;-86
2021/09/16 07:43:07;;;;;;;;;;;;;;;21.81;75.59;97925.27;1656884;85;20306;-86
2021/09/16 07:58:38;;;;;;;;;;;;;;;22.02;75.20;97919.95;1875389;75;20204;-85
2021/09/16 08:01:05;;;;;;;;;;;;;;;22.06;75.21;97931.05;1842018;77;22960;-85
2021/09/16 08:03:31;;;;;;;;;;;;;;;22.06;75.17;97929.20;1841529;77;44381;-87
2021/09/16 08:05:57;;;;;;;;;;;;;;;22.06;75.12;97929.20;1836927;76;24367;-86
2021/09/16 08:08:26;;;;;;;;;;;;;;;22.05;75.08;97932.88;1841288;77;20179;-86
2021/09/16 08:10:52;;;;;;;;;;;;;;;22.03;75.05;97930.94;1841211;77;24903;-86
2021/09/16 08:13:18;;;;;;;;;;;;;;;22.01;75.00;97932.95;1843352;77;21909;-88
2021/09/16 08:15:44;;;;;;;;;;;;;;;22.00;74.95;97937.97;1837495;77;25914;-85
2021/09/16 08:18:10;;;;;;;;;;;;;;;22.00;74.93;97937.97;1835359;77;24466;-86
2021/09/16 08:20:41;;;;;;;;;;;;;;;22.00;74.95;97937.97;1838638;77;20254;-86
2021/09/16 08:23:04;;;;;;;;;;;;;;;22.02;74.98;97943.11;1834503;77;25495;-86
2021/09/16 08:25:30;;;;;;;;;;;;;;;22.03;75.04;97940.77;1830768;77;22010;-88
2021/09/16 08:27:57;;;;;;;;;;;;;;;22.04;75.09;97943.22;1839817;77;25924;-85
2021/09/16 08:30:23;;;;;;;;;;;;;;;22.08;75.17;97943.69;1844886;77;24408;-88
2021/09/16 08:32:49;;;;;;;;;;;;;;;22.12;75.24;97940.94;1831479;77;20297;-85
2021/09/16 08:35:15;;;;;;;;;;;;;;;22.16;75.34;97948.86;1839842;76;24385;-85
2021/09/16 08:37:42;;;;;;;;;;;;;;;22.12;75.37;97938.28;1839194;77;22052;-86
2021/09/16 08:40:11;;;;;;;;;;;;;;;22.19;75.40;97945.83;1839573;77;26074;-86
2021/09/16 08:42:39;;;;;;;;;;;;;;;22.15;75.43;97943.21;1835291;77;24566;-86
2021/09/16 08:45:07;;;;;;;;;;;;;;;22.16;75.44;97949.38;1834996;77;20342;-88
2021/09/16 08:47:36;;;;;;;;;;;;;;;22.18;75.42;97949.51;1841205;77;23763;-88
2021/09/16 08:50:01;;;;;;;;;;;;;;;22.17;75.40;97950.52;1830920;77;22639;-88
2021/09/16 08:52:27;;;;;;;;;;;;;;;22.16;75.41;97951.53;1833054;77;26051;-86
2021/09/16 08:54:55;;;;;;;;;;;;;;;22.18;75.43;97952.68;1830751;77;24464;-84
2021/09/16 08:57:21;;;;;;;;;;;;;;;22.17;75.43;97954.52;1839104;77;20258;-86
2021/09/16 08:59:48;;;;;;;;;;;;;;;22.17;75.44;97955.02;1820746;77;24470;-85
2021/09/16 09:02:14;;;;;;;;;;;;;;;22.13;75.38;97948.44;1823342;78;22075;-86
2021/09/16 09:04:41;;;;;;;;;;;;;;;22.08;75.40;97945.02;1818744;77;26021;-88
2021/09/16 09:07:08;;;;;;;;;;;;;;;22.05;75.42;97943.55;1810913;78;24385;-89
2021/09/16 09:09:39;;;;;;;;;;;;;;;22.04;75.47;97941.06;1812895;78;20883;-87
2021/09/16 09:12:12;;;;;;;;;;;;;;;22.02;75.54;97934.61;1814498;77;25205;-86
2021/09/16 09:14:41;;;;;;;;;;;;;;;22.04;75.67;97939.22;1817679;77;22120;-86
2021/09/16 09:17:22;;;;;;;;;;;;;;;22.05;75.82;97944.88;1820396;77;26817;-86
2021/09/16 09:19:49;;;;;;;;;;;;;;;22.03;75.95;97941.59;1822716;78;24394;-86
2021/09/16 09:22:17;;;;;;;;;;;;;;;22.02;76.07;97931.95;1815069;78;20517;-86
2021/09/16 09:24:46;;;;;;;;;;;;;;;22.01;76.19;97932.95;1818718;78;24414;-86
2021/09/16 09:27:22;;;;;;;;;;;;;;;22.01;76.26;97931.62;1813322;78;22107;-87
2021/09/16 09:30:08;;;;;;;;;;;;;;;22.01;76.36;97928.13;1814757;78;26201;-87
2021/09/16 09:32:51;;;;;;;;;;;;;;;22.03;76.53;97929.61;1822444;77;24648;-87
2021/09/16 09:35:25;;;;;;;;;;;;;;;22.07;76.64;97928.70;1824178;77;20165;-87
2021/09/16 09:37:51;;;;;;;;;;;;;;;22.07;76.66;97925.53;1817846;78;25126;-87
2021/09/16 09:40:19;;;;;;;;;;;;;;;22.15;76.71;97933.09;1821879;78;21968;-88
2021/09/16 09:42:45;;;;;;;;;;;;;;;22.21;76.71;97926.45;1815277;77;26711;-87
2021/09/16 09:45:11;;;;;;;;;;;;;;;22.25;76.69;97924.25;1816670;78;24471;-87
2021/09/16 09:47:39;;;;;;;;;;;;;;;22.28;76.74;97924.67;1814121;78;20258;-88
2021/09/16 09:50:06;;;;;;;;;;;;;;;22.30;76.75;97917.31;1814493;78;24465;-89
2021/09/16 09:52:33;;;;;;;;;;;;;;;22.34;76.81;97923.07;1813557;78;22125;-87
2021/09/16 09:55:01;;;;;;;;;;;;;;;22.37;76.87;97924.83;1819901;78;26590;-87
2021/09/16 09:57:27;;;;;;;;;;;;;;;22.43;76.93;97923.23;1813076;78;24410;-89
2021/09/16 10:00:01;;;;;;;;;;;;;;;22.56;76.93;97931.34;1815077;78;20163;-87
2021/09/16 10:02:41;;;;;;;;;;;;;;;22.64;76.88;97927.17;1825743;77;24309;-87
2021/09/16 10:05:20;;;;;;;;;;;;;;;22.71;76.80;97928.08;1818341;78;22545;-85
2021/09/16 10:07:48;;;;;;;;;;;;;;;22.77;76.75;97931.30;1819567;78;25983;-89
2021/09/16 10:10:14;;;;;;;;;;;;;;;22.88;76.80;97922.73;1820477;78;24441;-89
2021/09/16 10:12:40;;;;;;;;;;;;;;;;;;1821769;78;20207;-87
2021/09/16 10:15:08;;;;;;;;;;;;;;;23.09;76.74;97924.98;1820291;78;20242;-87
2021/09/16 10:17:40;;;;;;;;;;;;;;;23.16;76.64;97924.00;1822094;78;22683;-88
2021/09/16 10:20:08;;;;;;;;;;;;;;;23.25;76.47;97924.64;1818587;78;25945;-88
2021/09/16 10:22:35;;;;;;;;;;;;;;;23.29;76.24;97923.24;1815629;78;24590;-87
2021/09/16 10:25:01;;;;;;;;;;;;;;;23.36;76.03;97925.41;1816047;78;20550;-87
2021/09/16 10:27:33;;;;;;;;;;;;;;;23.37;75.79;97916.38;1814384;78;24327;-89
2021/09/16 10:29:59;;;;;;;;;;;;;;;23.38;75.61;97912.68;1814827;78;22065;-86
2021/09/16 10:32:30;;;;;;;;;;;;;;;23.40;75.38;97907.15;1785276;78;26818;-88
2021/09/16 10:34:58;;;;;;;;;;;;;;;23.43;75.24;97911.56;1817803;78;24505;-87
2021/09/16 10:37:26;;;;;;;;;;;;;;;23.46;75.05;97906.34;1815612;78;21002;-87
2021/09/16 10:39:52;;;;;;;;;;;;;;;23.52;74.92;97906.88;1817634;78;24432;-86
2021/09/16 10:42:20;;;;;;;;;;;;;;;23.55;74.78;97899.30;1818354;78;22058;-86
2021/09/16 10:44:48;;;;;;;;;;;;;;;23.62;74.65;97905.47;1811666;78;26854;-87
2021/09/16 10:47:16;;;;;;;;;;;;;;;23.65;74.46;97905.08;1811551;78;24500;-87
2021/09/16 10:49:42;;;;;;;;;;;;;;;23.66;74.21;97905.39;1817012;78;20214;-86
2021/09/16 10:52:13;;;;;;;;;;;;;;;23.71;74.03;97905.61;1815612;78;24297;-89
2021/09/16 10:54:53;;;;;;;;;;;;;;;23.79;73.89;97900.56;1818041;78;22040;-86
2021/09/16 10:57:21;;;;;;;;;;;;;;;23.85;73.71;97897.08;1783061;77;25990;-87
2021/09/16 10:59:55;;;;;;;;;;;;;;;23.86;73.50;97896.05;1808642;78;24373;-88
2021/09/16 11:02:23;;;;;;;;;;;;;;;23.87;73.38;97892.36;1801555;78;20243;-88
2021/09/16 11:04:59;;;;;;;;;;;;;;;23.91;73.23;97895.44;1807653;78;25222;-88
2021/09/16 11:07:34;;;;;;;;;;;;;;;23.91;73.12;97896.27;1805789;78;22915;-88
2021/09/16 11:10:17;;;;;;;;;;;;;;;23.96;73.03;97894.31;1811225;78;25923;-87
2021/09/16 11:12:45;;;;;;;;;;;;;;;23.99;72.89;97897.92;1813266;77;24406;-87
2021/09/16 11:15:12;;;;;;;;;;;;;;;24.04;72.80;97894.95;1810066;77;20181;-87
2021/09/16 11:17:57;;;;;;;;;;;;;;;24.10;72.75;97894.64;1806389;78;24310;-88
2021/09/16 11:20:23;;;;;;;;;;;;;;;24.13;72.71;97890.20;1804926;78;22341;-86
2021/09/16 11:22:52;;;;;;;;;;;;;;;24.12;72.55;97899.25;1811313;78;25989;-88
2021/09/16 11:25:18;;;;;;;;;;;;;;;24.12;72.35;97893.90;1812769;77;24420;-88
2021/09/16 11:27:44;;;;;;;;;;;;;;;24.08;72.18;97890.00;1803521;78;20179;-87
2021/09/16 11:30:18;;;;;;;;;;;;;;;24.03;71.95;97888.46;1802530;77;24957;-89
2021/09/16 11:32:45;;;;;;;;;;;;;;;23.99;71.72;97893.91;1805433;78;22117;-88
2021/09/16 11:35:13;;;;;;;;;;;;;;;23.98;71.55;97894.94;1810304;78;26755;-87
2021/09/16 11:37:43;;;;;;;;;;;;;;;23.96;71.39;97891.13;1805163;78;24073;-88
2021/09/16 11:40:12;;;;;;;;;;;;;;;23.94;71.22;97886.52;1805660;78;20423;-87
2021/09/16 11:42:47;;;;;;;;;;;;;;;23.90;71.03;97884.44;1810330;78;24318;-88
2021/09/16 11:45:21;;;;;;;;;;;;;;;23.84;70.72;97882.06;1809929;78;22122;-87
2021/09/16 11:47:52;;;;;;;;;;;;;;;23.74;70.47;97881.13;1805940;78;26708;-89
2021/09/16 11:50:29;;;;;;;;;;;;;;;23.74;70.30;97881.64;1811478;78;24414;-87
2021/09/16 11:53:06;;;;;;;;;;;;;;;23.76;70.20;97876.94;1807685;78;20421;-87
2021/09/16 11:55:33;;;;;;;;;;;;;;;23.82;70.14;97880.13;1815642;77;25088;-88
2021/09/16 11:58:19;;;;;;;;;;;;;;;23.83;70.00;97875.09;1813727;77;22652;-88
2021/09/16 12:00:49;;;;;;;;;;;;;;;23.80;69.82;97870.14;1796861;79;25987;-87
2021/09/16 12:03:20;;;;;;;;;;;;;;;23.78;69.66;97867.67;1797520;78;24454;-87
2021/09/16 12:05:50;;;;;;;;;;;;;;;23.81;69.58;97867.78;1796784;78;20218;-88
2021/09/16 12:08:18;;;;;;;;;;;;;;;23.79;69.44;97869.83;1797026;79;24516;-88
2021/09/16 12:10:46;;;;;;;;;;;;;;;23.73;69.31;97870.64;1797753;79;22144;-87
2021/09/16 12:13:14;;;;;;;;;;;;;;;23.71;69.15;97863.36;1796743;79;26675;-87
2021/09/16 12:15:40;;;;;;;;;;;;;;;23.70;69.08;97861.20;1795403;79;24665;-87
2021/09/16 12:18:07;;;;;;;;;;;;;;;23.69;68.98;97863.56;1797399;79;20282;-87
2021/09/16 12:20:35;;;;;;;;;;;;;;;23.64;68.88;97856.67;1799464;79;24765;-87
2021/09/16 12:23:02;;;;;;;;;;;;;;;23.63;68.78;97869.71;1799897;79;21933;-88
2021/09/16 12:25:29;;;;;;;;;;;;;;;23.58;68.68;97872.69;1796057;79;25938;-88
2021/09/16 12:28:06;;;;;;;;;;;;;;;23.53;68.53;97871.96;1796531;78;24331;-86
2021/09/16 12:30:36;;;;;;;;;;;;;;;23.51;68.51;97867.86;1795836;79;20531;-85
2021/09/16 12:33:03;;;;;;;;;;;;;;;23.53;68.50;97869.80;1799326;79;25200;-86
2021/09/16 12:35:29;;;;;;;;;;;;;;;23.55;68.50;97867.25;1797837;79;22068;-86
2021/09/16 12:38:05;;;;;;;;;;;;;;;23.56;68.50;97867.56;1799757;79;25944;-86
2021/09/16 12:40:31;;;;;;;;;;;;;;;23.58;68.51;97864.16;1798871;79;24414;-88
2021/09/16 12:43:04;;;;;;;;;;;;;;;23.54;68.49;97865.59;1798157;79;20227;-86
2021/09/16 12:45:32;;;;;;;;;;;;;;;23.49;68.45;97862.72;1798900;79;24555;-87
2021/09/16 12:47:59;;;;;;;;;;;;;;;23.46;68.45;97855.09;1796275;79;21401;-90
2021/09/16 12:50:25;;;;;;;;;;;;;;;23.43;68.36;97854.14;1798539;79;26119;-88
2021/09/16 12:52:53;;;;;;;;;;;;;;;23.39;68.31;97850.75;1797170;79;24412;-89
2021/09/16 12:55:19;;;;;;;;;;;;;;;23.35;68.27;97849.80;1797760;79;20528;-87
2021/09/16 12:57:47;;;;;;;;;;;;;;;23.33;68.21;97849.20;1800668;79;24579;-87
2021/09/16 13:00:16;;;;;;;;;;;;;;;23.30;68.14;97843.42;1825578;77;21967;-86
2021/09/16 13:02:47;;;;;;;;;;;;;;;23.28;68.13;97835.63;1835435;77;26116;-85